createdAt,value
2017-08-18T00:00:18.466Z,88.81
2017-08-18T00:02:45.864Z,88.92
2017-08-18T00:05:13.270Z,88.99
2017-08-18T00:07:40.666Z,89.05
2017-08-18T00:10:08.078Z,89.09
2017-08-18T00:12:35.523Z,89.13
2017-08-18T00:15:02.899Z,89.34
2017-08-18T00:17:30.298Z,89.35
2017-08-18T00:19:57.694Z,89.43
2017-08-18T00:22:25.149Z,89.31
2017-08-18T00:24:52.545Z,89.46
2017-08-18T00:27:19.939Z,89.28
2017-08-18T00:29:47.344Z,89.52
2017-08-18T00:32:14.742Z,89.62
2017-08-18T00:34:42.146Z,89.58
2017-08-18T00:37:09.537Z,89.41
2017-08-18T00:39:36.940Z,89.14
2017-08-18T00:42:04.339Z,89.09
2017-08-18T00:44:31.745Z,88.98
2017-08-18T00:46:59.194Z,88.74
2017-08-18T00:49:26.590Z,88.72
2017-08-18T00:51:53.994Z,88.61
2017-08-18T00:54:21.394Z,88.41
2017-08-18T00:56:48.794Z,88.27
2017-08-18T00:59:16.302Z,88.23
2017-08-18T01:01:43.699Z,88.31
2017-08-18T01:04:11.090Z,88.36
2017-08-18T01:06:38.495Z,88.38
2017-08-18T01:09:05.894Z,88.49
2017-08-18T01:11:33.443Z,88.59
2017-08-18T01:14:00.839Z,88.76
2017-08-18T01:16:28.239Z,89.32
2017-08-18T01:18:55.638Z,89.41
2017-08-18T01:21:23.037Z,89.61
2017-08-18T01:23:50.542Z,89.82
2017-08-18T01:26:17.942Z,89.65
2017-08-18T01:28:45.347Z,89.66
2017-08-18T01:31:12.746Z,89.57
2017-08-18T01:33:40.144Z,89.45
2017-08-18T01:36:08.011Z,89.37
2017-08-18T01:38:35.411Z,89.29
2017-08-18T01:41:02.811Z,89.35
2017-08-18T01:43:30.211Z,89.35
2017-08-18T01:45:57.611Z,89.36
2017-08-18T01:48:25.014Z,89.37
2017-08-18T01:50:52.410Z,89.40
2017-08-18T01:53:19.807Z,89.42
2017-08-18T01:55:47.210Z,89.49
2017-08-18T01:58:14.658Z,89.51
2017-08-18T02:00:42.082Z,89.55
2017-08-18T02:03:09.489Z,89.70
2017-08-18T02:05:37.315Z,89.66
2017-08-18T02:08:04.739Z,89.54
2017-08-18T02:10:32.144Z,89.54
2017-08-18T02:12:59.646Z,89.44
2017-08-18T02:15:27.042Z,89.27
2017-08-18T02:17:54.891Z,89.03
2017-08-18T02:20:22.275Z,89.04
2017-08-18T02:22:49.679Z,88.89
2017-08-18T02:25:17.102Z,88.79
2017-08-18T02:27:44.513Z,88.53
2017-08-18T02:30:11.898Z,88.54
2017-08-18T02:32:39.310Z,88.70
2017-08-18T02:35:06.702Z,88.71
2017-08-18T02:37:34.098Z,88.73
2017-08-18T02:40:01.518Z,88.70
2017-08-18T02:42:28.918Z,88.52
2017-08-18T02:44:56.317Z,88.12
2017-08-18T02:47:23.742Z,88.33
2017-08-18T02:49:51.144Z,88.24
2017-08-18T02:52:18.535Z,88.26
2017-08-18T02:54:46.043Z,88.27
2017-08-18T02:57:13.439Z,88.24
2017-08-18T02:59:40.846Z,88.38
2017-08-18T03:02:08.618Z,88.70
2017-08-18T03:04:36.015Z,89.22
2017-08-18T03:07:03.416Z,89.22
2017-08-18T03:09:30.819Z,89.44
2017-08-18T03:11:58.214Z,90.13
2017-08-18T03:14:25.626Z,90.26
2017-08-18T03:16:53.030Z,90.62
2017-08-18T03:19:20.426Z,90.81
2017-08-18T03:21:47.823Z,90.46
2017-08-18T03:24:15.522Z,90.25
2017-08-18T03:26:42.918Z,90.20
2017-08-18T03:29:10.315Z,90.41
2017-08-18T03:31:37.867Z,90.54
2017-08-18T03:34:05.262Z,90.54
2017-08-18T03:36:32.654Z,90.50
2017-08-18T03:39:00.474Z,90.33
2017-08-18T03:41:27.873Z,90.39
2017-08-18T03:43:55.273Z,90.40
2017-08-18T03:46:23.058Z,90.60
2017-08-18T03:48:50.454Z,90.74
2017-08-18T03:51:17.853Z,90.82
2017-08-18T03:53:45.254Z,90.86
2017-08-18T03:56:12.650Z,90.74
2017-08-18T03:58:40.043Z,91.10
2017-08-18T04:01:07.598Z,91.37
2017-08-18T04:03:34.982Z,91.75
2017-08-18T04:06:02.381Z,91.66
2017-08-18T04:08:29.821Z,90.32
2017-08-18T04:10:57.223Z,90.04
2017-08-18T04:13:24.617Z,89.79
2017-08-18T04:15:52.170Z,90.82
2017-08-18T04:18:19.574Z,91.07
2017-08-18T04:20:46.966Z,91.04
2017-08-18T04:23:14.372Z,90.46
2017-08-18T04:25:41.770Z,91.71
2017-08-18T04:28:09.157Z,92.63
2017-08-18T04:30:36.566Z,92.67
2017-08-18T04:33:03.964Z,92.56
2017-08-18T04:35:31.354Z,92.26
2017-08-18T04:37:58.762Z,92.44
2017-08-18T04:40:26.155Z,92.50
2017-08-18T04:42:53.551Z,92.39
2017-08-18T04:45:21.107Z,92.34
2017-08-18T04:47:48.502Z,92.33
2017-08-18T04:50:15.905Z,92.67
2017-08-18T04:52:43.323Z,92.66
2017-08-18T04:55:10.723Z,92.55
2017-08-18T04:57:38.123Z,92.37
2017-08-18T05:00:05.580Z,92.35
2017-08-18T05:02:32.991Z,92.33
2017-08-18T05:05:00.382Z,92.15
2017-08-18T05:07:27.899Z,91.96
2017-08-18T05:09:55.295Z,91.92
2017-08-18T05:12:22.694Z,92.08
2017-08-18T05:14:50.263Z,91.88
2017-08-18T05:17:17.683Z,91.94
2017-08-18T05:19:45.074Z,92.22
2017-08-18T05:22:12.621Z,92.32
2017-08-18T05:24:40.019Z,92.42
2017-08-18T05:27:07.424Z,92.35
2017-08-18T05:29:35.034Z,92.56
2017-08-18T05:32:02.439Z,92.64
2017-08-18T05:34:29.854Z,93.00
2017-08-18T05:36:57.621Z,92.97
2017-08-18T05:39:25.010Z,92.76
2017-08-18T05:41:52.402Z,92.85
2017-08-18T05:44:20.138Z,92.33
2017-08-18T05:46:47.539Z,92.57
2017-08-18T05:49:14.955Z,92.52
2017-08-18T05:51:42.462Z,92.34
2017-08-18T05:54:09.859Z,92.20
2017-08-18T05:56:37.255Z,92.18
2017-08-18T05:59:04.686Z,91.99
2017-08-18T06:01:32.087Z,91.95
2017-08-18T06:03:59.492Z,91.83
2017-08-18T06:06:27.106Z,91.94
2017-08-18T06:08:54.518Z,91.81
2017-08-18T06:11:21.919Z,91.66
2017-08-18T06:13:49.362Z,92.10
2017-08-18T06:16:16.790Z,91.99
2017-08-18T06:18:44.191Z,92.00
2017-08-18T06:21:11.713Z,91.89
2017-08-18T06:23:39.110Z,91.74
2017-08-18T06:26:06.510Z,91.77
2017-08-18T06:28:34.218Z,91.79
2017-08-18T06:31:01.611Z,91.38
2017-08-18T06:33:29.014Z,91.43
2017-08-18T06:35:56.571Z,91.48
2017-08-18T06:38:23.967Z,91.46
2017-08-18T06:40:51.377Z,91.33
2017-08-18T06:43:18.882Z,91.15
2017-08-18T06:45:46.282Z,91.07
2017-08-18T06:48:13.678Z,90.90
2017-08-18T06:50:41.551Z,91.06
2017-08-18T06:53:08.938Z,90.43
2017-08-18T06:55:36.322Z,90.52
2017-08-18T06:58:03.742Z,90.15
2017-08-18T07:00:31.139Z,90.34
2017-08-18T07:02:58.542Z,90.47
2017-08-18T07:05:26.283Z,90.44
2017-08-18T07:07:53.688Z,90.57
2017-08-18T07:10:21.078Z,89.21
2017-08-18T07:12:48.637Z,89.66
2017-08-18T07:15:16.026Z,90.34
2017-08-18T07:17:43.640Z,90.65
2017-08-18T07:20:11.245Z,91.33
2017-08-18T07:22:38.626Z,91.70
2017-08-18T07:25:06.027Z,91.72
2017-08-18T07:27:33.619Z,91.52
2017-08-18T07:30:01.026Z,91.79
2017-08-18T07:32:28.434Z,91.73
2017-08-18T07:34:55.846Z,91.81
2017-08-18T07:37:23.242Z,91.66
2017-08-18T07:39:50.638Z,91.98
2017-08-18T07:42:18.187Z,92.05
2017-08-18T07:44:45.594Z,92.06
2017-08-18T07:47:12.986Z,91.79
2017-08-18T07:49:40.396Z,91.59
2017-08-18T07:52:07.794Z,91.41
2017-08-18T07:54:35.190Z,91.39
2017-08-18T07:57:03.095Z,90.96
2017-08-18T07:59:30.495Z,91.10
2017-08-18T08:01:57.886Z,91.02
2017-08-18T08:04:25.464Z,90.75
2017-08-18T08:06:52.859Z,90.19
2017-08-18T08:09:20.258Z,90.36
2017-08-18T08:11:48.042Z,90.36
2017-08-18T08:14:15.434Z,90.23
2017-08-18T08:16:42.833Z,90.34
2017-08-18T08:19:10.254Z,89.66
2017-08-18T08:21:37.650Z,89.73
2017-08-18T08:24:05.046Z,89.26
2017-08-18T08:26:32.487Z,89.55
2017-08-18T08:28:59.886Z,89.22
2017-08-18T08:31:27.282Z,89.27
2017-08-18T08:33:54.718Z,89.45
2017-08-18T08:36:22.115Z,89.32
2017-08-18T08:38:49.515Z,89.36
2017-08-18T08:41:17.065Z,89.10
2017-08-18T08:43:44.463Z,89.49
2017-08-18T08:46:11.858Z,89.40
2017-08-18T08:48:39.287Z,88.34
2017-08-18T08:51:06.681Z,88.57
2017-08-18T08:53:34.081Z,88.09
2017-08-18T08:56:01.634Z,88.49
2017-08-18T08:58:29.042Z,88.20
2017-08-18T09:00:56.435Z,87.51
2017-08-18T09:03:23.855Z,87.73
2017-08-18T09:05:51.267Z,84.52
2017-08-18T09:08:18.646Z,85.26
2017-08-18T09:10:46.196Z,85.94
2017-08-18T09:13:13.595Z,84.45
2017-08-18T09:15:40.999Z,85.29
2017-08-18T09:18:08.767Z,85.99
2017-08-18T09:20:36.162Z,86.22
2017-08-18T09:23:03.559Z,85.02
2017-08-18T09:25:31.146Z,84.60
2017-08-18T09:27:58.551Z,83.79
2017-08-18T09:30:25.951Z,82.98
2017-08-18T09:32:53.718Z,83.61
2017-08-18T09:35:21.110Z,84.42
2017-08-18T09:37:48.511Z,84.08
2017-08-18T09:40:16.023Z,83.81
2017-08-18T09:42:43.419Z,85.60
2017-08-18T09:45:10.810Z,86.25
2017-08-18T09:47:38.426Z,85.33
2017-08-18T09:50:17.682Z,84.55
2017-08-18T09:55:57.192Z,85.62
2017-08-18T09:58:36.410Z,85.85
2017-08-18T10:01:03.815Z,85.69
2017-08-18T10:03:31.215Z,86.00
2017-08-18T10:05:58.633Z,84.77
2017-08-18T10:08:26.040Z,84.62
2017-08-18T10:10:53.434Z,83.76
2017-08-18T10:13:20.854Z,84.46
2017-08-18T10:15:48.251Z,84.21
2017-08-18T10:18:15.651Z,83.38
2017-08-18T10:20:43.410Z,84.31
2017-08-18T10:23:10.815Z,84.27
2017-08-18T10:25:38.202Z,85.21
2017-08-18T10:28:05.707Z,85.63
2017-08-18T10:30:33.105Z,84.70
2017-08-18T10:33:00.499Z,83.03
2017-08-18T10:35:28.186Z,82.48
2017-08-18T10:37:55.567Z,82.91
2017-08-18T10:40:22.969Z,81.93
2017-08-18T10:42:50.511Z,78.52
2017-08-18T10:45:17.895Z,78.06
2017-08-18T10:47:45.293Z,80.25
2017-08-18T10:50:13.106Z,81.31
2017-08-18T10:52:40.504Z,80.03
2017-08-18T10:55:07.899Z,78.77
2017-08-18T10:57:35.483Z,80.62
2017-08-18T11:00:02.886Z,81.12
2017-08-18T11:02:30.277Z,79.15
2017-08-18T11:04:57.730Z,81.00
2017-08-18T11:07:25.121Z,79.19
2017-08-18T11:09:52.514Z,79.27
2017-08-18T11:12:19.950Z,80.34
2017-08-18T11:14:47.343Z,81.50
2017-08-18T11:17:14.734Z,81.12
2017-08-18T11:19:42.274Z,80.43
2017-08-18T11:22:09.661Z,80.56
2017-08-18T11:24:37.058Z,79.17
2017-08-18T11:27:04.973Z,81.10
2017-08-18T11:29:32.364Z,81.24
2017-08-18T11:31:59.754Z,81.54
2017-08-18T11:34:27.339Z,82.24
2017-08-18T11:36:54.730Z,82.39
2017-08-18T11:39:22.123Z,82.89
2017-08-18T11:41:49.558Z,82.71
2017-08-18T11:44:16.946Z,82.44
2017-08-18T11:46:44.355Z,82.11
2017-08-18T11:49:11.770Z,82.67
2017-08-18T11:51:39.160Z,82.83
2017-08-18T11:54:06.547Z,82.62
2017-08-18T11:56:34.050Z,81.51
2017-08-18T11:59:01.435Z,81.06
2017-08-18T12:01:28.820Z,81.86
2017-08-18T12:03:56.379Z,82.89
2017-08-18T12:06:23.766Z,82.15
2017-08-18T12:08:51.157Z,80.05
2017-08-18T12:11:18.993Z,79.33
2017-08-18T12:13:46.382Z,79.73
2017-08-18T12:16:13.771Z,80.47
2017-08-18T12:18:41.178Z,81.68
2017-08-18T12:21:08.568Z,82.63
2017-08-18T12:23:35.975Z,80.46
2017-08-18T12:26:03.378Z,80.82
2017-08-18T12:28:30.763Z,81.10
2017-08-18T12:30:58.154Z,82.31
2017-08-18T12:33:25.654Z,82.54
2017-08-18T12:35:53.054Z,83.71
2017-08-18T12:38:20.446Z,84.57
2017-08-18T12:40:47.988Z,85.50
2017-08-18T12:43:15.378Z,85.96
2017-08-18T12:45:42.766Z,86.10
2017-08-18T12:48:10.187Z,86.61
2017-08-18T12:50:37.603Z,87.91
2017-08-18T12:53:05.006Z,88.13
2017-08-18T12:55:32.518Z,89.05
2017-08-18T12:57:59.931Z,89.43
2017-08-18T13:00:27.339Z,89.59
2017-08-18T13:02:54.986Z,89.70
2017-08-18T13:05:22.399Z,89.58
2017-08-18T13:07:49.798Z,90.05
2017-08-18T13:10:17.354Z,90.21
2017-08-18T13:12:44.750Z,90.38
2017-08-18T13:15:12.154Z,90.32
2017-08-18T13:17:39.709Z,88.98
2017-08-18T13:20:07.106Z,88.70
2017-08-18T13:22:34.502Z,89.24
2017-08-18T13:25:01.906Z,89.05
2017-08-18T13:27:29.299Z,89.04
2017-08-18T13:29:56.687Z,89.20
2017-08-18T13:32:24.192Z,89.31
2017-08-18T13:34:51.584Z,89.13
2017-08-18T13:37:18.974Z,88.36
2017-08-18T13:39:46.519Z,86.71
2017-08-18T13:42:13.913Z,87.09
2017-08-18T13:44:41.307Z,87.72
2017-08-18T13:47:08.724Z,88.35
2017-08-18T13:49:36.115Z,88.25
2017-08-18T13:52:03.513Z,88.56
2017-08-18T13:54:30.917Z,88.98
2017-08-18T13:56:58.319Z,89.14
2017-08-18T13:59:25.714Z,88.35
2017-08-18T14:01:53.123Z,88.79
2017-08-18T14:04:20.523Z,89.34
2017-08-18T14:06:47.918Z,89.52
2017-08-18T14:09:15.731Z,89.39
2017-08-18T14:11:43.126Z,90.13
2017-08-18T14:14:10.530Z,89.92
2017-08-18T14:16:38.307Z,89.99
2017-08-18T14:19:05.698Z,88.54
2017-08-18T14:21:33.391Z,89.51
2017-08-18T14:24:00.898Z,90.22
2017-08-18T14:29:31.078Z,90.19
2017-08-18T14:31:58.488Z,89.65
2017-08-18T14:34:25.871Z,89.38
2017-08-18T14:36:53.639Z,88.86
2017-08-18T14:39:21.035Z,89.75
2017-08-18T14:41:48.426Z,89.50
2017-08-18T14:44:15.975Z,89.62
2017-08-18T14:46:43.375Z,89.98
2017-08-18T14:49:10.762Z,89.02
2017-08-18T14:51:38.170Z,88.99
2017-08-18T14:54:05.572Z,89.21
2017-08-18T14:56:32.984Z,89.47
2017-08-18T14:59:00.496Z,89.43
2017-08-18T15:01:27.874Z,88.95
2017-08-18T15:03:55.278Z,90.11
2017-08-18T15:06:22.699Z,89.88
2017-08-18T15:08:50.087Z,90.36
2017-08-18T15:11:17.470Z,90.42
2017-08-18T15:13:44.978Z,89.98
2017-08-18T15:16:12.378Z,89.88
2017-08-18T15:18:39.784Z,89.91
2017-08-18T15:21:07.218Z,88.94
2017-08-18T15:23:34.602Z,89.55
2017-08-18T15:26:01.994Z,89.07
2017-08-18T15:28:29.498Z,88.02
2017-08-18T15:30:56.894Z,87.93
2017-08-18T15:33:24.294Z,88.86
2017-08-18T15:35:51.685Z,88.38
2017-08-18T15:38:19.083Z,87.93
2017-08-18T15:40:46.494Z,87.16
2017-08-18T15:43:14.130Z,87.71
2017-08-18T15:45:41.531Z,87.50
2017-08-18T15:48:08.926Z,86.92
2017-08-18T15:50:36.515Z,86.57
2017-08-18T15:53:03.924Z,85.05
2017-08-18T15:55:31.322Z,86.63
2017-08-18T15:57:58.735Z,86.64
2017-08-18T16:00:26.126Z,86.27
2017-08-18T16:02:53.515Z,86.47
2017-08-18T16:05:20.912Z,86.54
2017-08-18T16:07:48.309Z,86.81
2017-08-18T16:10:15.694Z,86.56
2017-08-18T16:12:43.406Z,86.20
2017-08-18T16:15:10.800Z,85.88
2017-08-18T16:17:38.187Z,85.21
2017-08-18T16:20:05.590Z,86.77
2017-08-18T16:22:32.978Z,86.73
2017-08-18T16:25:00.366Z,86.43
2017-08-18T16:27:27.803Z,86.84
2017-08-18T16:29:55.197Z,85.94
2017-08-18T16:32:22.580Z,85.74
2017-08-18T16:34:49.986Z,85.88
2017-08-18T16:37:17.378Z,85.38
2017-08-18T16:39:44.768Z,85.15
2017-08-18T16:42:12.549Z,86.21
2017-08-18T16:44:39.914Z,85.97
2017-08-18T16:47:07.307Z,84.27
2017-08-18T16:49:34.702Z,86.54
2017-08-18T16:52:02.090Z,86.05
2017-08-18T16:54:29.484Z,85.41
2017-08-18T16:56:56.921Z,85.05
2017-08-18T16:59:24.303Z,84.53
2017-08-18T17:01:51.691Z,84.83
2017-08-18T17:04:19.195Z,86.10
2017-08-18T17:06:46.580Z,86.07
2017-08-18T17:09:13.985Z,84.99
2017-08-18T17:11:41.499Z,85.32
2017-08-18T17:14:08.890Z,85.87
2017-08-18T17:16:36.288Z,85.62
2017-08-18T17:19:04.142Z,86.11
2017-08-18T17:21:31.539Z,86.33
2017-08-18T17:23:58.933Z,87.12
2017-08-18T17:26:26.518Z,87.73
2017-08-18T17:28:53.912Z,84.92
2017-08-18T17:31:21.291Z,85.73
2017-08-18T17:33:48.831Z,86.02
2017-08-18T17:36:16.218Z,86.52
2017-08-18T17:38:43.602Z,87.19
2017-08-18T17:41:11.018Z,86.58
2017-08-18T17:43:38.410Z,87.03
2017-08-18T17:46:05.798Z,86.84
2017-08-18T17:48:33.343Z,86.63
2017-08-18T17:51:00.732Z,87.22
2017-08-18T17:53:28.119Z,87.57
2017-08-18T17:55:55.513Z,86.72
2017-08-18T17:58:22.904Z,85.19
2017-08-18T18:00:50.295Z,86.45
2017-08-18T18:03:17.967Z,87.27
2017-08-18T18:05:45.360Z,87.12
2017-08-18T18:08:12.748Z,86.56
2017-08-18T18:10:40.162Z,86.59
2017-08-18T18:13:07.562Z,86.57
2017-08-18T18:15:34.954Z,87.08
2017-08-18T18:18:02.367Z,87.90
2017-08-18T18:20:29.771Z,88.29
2017-08-18T18:22:57.160Z,88.54
2017-08-18T18:25:24.700Z,88.68
2017-08-18T18:27:52.100Z,88.77
2017-08-18T18:30:19.492Z,88.77
2017-08-18T18:32:46.894Z,88.91
2017-08-18T18:35:14.286Z,89.07
2017-08-18T18:37:41.682Z,89.21
2017-08-18T18:40:09.120Z,88.83
2017-08-18T18:42:36.510Z,88.77
2017-08-18T18:45:03.907Z,88.10
2017-08-18T18:47:31.343Z,88.35
2017-08-18T18:49:58.726Z,88.74
2017-08-18T18:52:26.124Z,88.72
2017-08-18T18:54:53.662Z,88.83
2017-08-18T18:57:21.057Z,88.59
2017-08-18T18:59:48.446Z,88.79
2017-08-18T19:02:15.988Z,89.11
2017-08-18T19:04:43.376Z,88.74
2017-08-18T19:07:10.771Z,89.05
2017-08-18T19:09:38.315Z,88.87
2017-08-18T19:12:05.702Z,88.94
2017-08-18T19:14:33.105Z,89.08
2017-08-18T19:17:00.649Z,89.35
2017-08-18T19:19:28.039Z,89.49
2017-08-18T19:21:55.432Z,89.68
2017-08-18T19:24:23.242Z,89.79
2017-08-18T19:26:50.626Z,89.94
2017-08-18T19:29:18.015Z,89.32
2017-08-18T19:31:45.614Z,89.37
2017-08-18T19:34:13.014Z,88.98
2017-08-18T19:36:40.403Z,88.80
2017-08-18T19:39:08.139Z,88.56
2017-08-18T19:41:35.536Z,88.78
2017-08-18T19:44:02.926Z,88.90
2017-08-18T19:46:30.336Z,89.46
2017-08-18T19:48:57.739Z,89.69
2017-08-18T19:51:25.126Z,89.96
2017-08-18T19:53:52.531Z,90.54
2017-08-18T19:56:19.923Z,91.21
2017-08-18T19:58:47.321Z,91.74
2017-08-18T20:01:14.871Z,91.52
2017-08-18T20:03:42.272Z,92.17
2017-08-18T20:06:09.654Z,91.40
2017-08-18T20:08:37.066Z,91.20
2017-08-18T20:11:04.459Z,91.62
2017-08-18T20:13:31.854Z,92.38
2017-08-18T20:15:59.606Z,91.69
2017-08-18T20:18:26.990Z,91.12
2017-08-18T20:20:54.378Z,91.33
2017-08-18T20:23:22.023Z,90.29
2017-08-18T20:25:49.415Z,88.08
2017-08-18T20:28:16.808Z,88.78
2017-08-18T20:30:44.206Z,88.37
2017-08-18T20:33:11.598Z,88.65
2017-08-18T20:35:39.022Z,87.14
2017-08-18T20:38:06.571Z,87.37
2017-08-18T20:40:33.956Z,87.19
2017-08-18T20:43:01.391Z,87.71
2017-08-18T20:45:28.920Z,88.45
2017-08-18T20:47:56.306Z,89.15
2017-08-18T20:50:23.690Z,88.64
2017-08-18T20:52:51.103Z,89.13
2017-08-18T20:55:18.495Z,88.43
2017-08-18T20:57:45.879Z,87.32
2017-08-18T21:00:13.406Z,86.34
2017-08-18T21:02:40.791Z,87.76
2017-08-18T21:05:08.186Z,88.93
2017-08-18T21:07:35.691Z,89.36
2017-08-18T21:10:03.083Z,89.63
2017-08-18T21:12:30.482Z,89.81
2017-08-18T21:14:57.918Z,89.29
2017-08-18T21:17:25.312Z,89.04
2017-08-18T21:19:52.699Z,89.25
2017-08-18T21:22:20.102Z,89.39
2017-08-18T21:24:47.490Z,89.48
2017-08-18T21:27:14.874Z,89.56
2017-08-18T21:29:42.418Z,89.95
2017-08-18T21:32:09.814Z,90.08
2017-08-18T21:34:37.214Z,90.07
2017-08-18T21:37:04.611Z,90.18
2017-08-18T21:39:31.998Z,90.22
2017-08-18T21:41:59.387Z,90.42
2017-08-18T21:44:26.890Z,90.17
2017-08-18T21:46:54.291Z,90.07
2017-08-18T21:49:21.687Z,90.38
2017-08-18T21:51:49.463Z,90.44
2017-08-18T21:54:16.856Z,90.58
2017-08-18T21:56:44.251Z,90.68
2017-08-18T21:59:11.691Z,90.64
2017-08-18T22:01:39.098Z,90.57
2017-08-18T22:04:06.497Z,90.45
2017-08-18T22:06:34.037Z,90.02
2017-08-18T22:09:01.445Z,89.85
2017-08-18T22:11:28.827Z,89.74
2017-08-18T22:13:56.270Z,89.61
2017-08-18T22:16:23.662Z,89.57
2017-08-18T22:18:51.058Z,89.30
2017-08-18T22:21:18.471Z,89.47
2017-08-18T22:23:45.871Z,89.43
2017-08-18T22:26:13.270Z,89.57
2017-08-18T22:28:40.836Z,90.10
2017-08-18T22:31:08.234Z,90.07
2017-08-18T22:33:35.635Z,90.19
2017-08-18T22:36:03.059Z,90.42
2017-08-18T22:38:30.463Z,90.42
2017-08-18T22:40:57.862Z,90.43
2017-08-18T22:43:25.274Z,90.31
2017-08-18T22:45:52.676Z,90.30
2017-08-18T22:48:20.075Z,90.37
2017-08-18T22:50:47.487Z,90.27
2017-08-18T22:53:14.887Z,90.49
2017-08-18T22:55:42.290Z,90.52
2017-08-18T22:58:09.697Z,90.74
2017-08-18T23:00:37.091Z,90.79
2017-08-18T23:03:04.488Z,90.72
2017-08-18T23:05:32.163Z,90.67
2017-08-18T23:07:59.564Z,90.74
2017-08-18T23:10:26.955Z,90.72
2017-08-18T23:12:54.508Z,90.55
2017-08-18T23:15:21.903Z,90.42
2017-08-18T23:17:49.299Z,90.51
2017-08-18T23:20:16.906Z,90.59
2017-08-18T23:22:44.308Z,90.39
2017-08-18T23:25:11.696Z,90.43
2017-08-18T23:27:39.138Z,90.55
2017-08-18T23:30:06.530Z,90.44
2017-08-18T23:32:33.927Z,90.22
2017-08-18T23:35:01.434Z,90.42
2017-08-18T23:37:28.826Z,90.40
2017-08-18T23:39:56.227Z,90.59
2017-08-18T23:42:23.760Z,90.47
2017-08-18T23:44:51.159Z,90.61
2017-08-18T23:47:18.554Z,90.56
2017-08-18T23:49:46.107Z,90.70
2017-08-18T23:52:13.507Z,90.62
2017-08-18T23:54:40.902Z,90.75
2017-08-18T23:57:08.462Z,90.70
2017-08-18T23:59:35.868Z,90.49
